Time;durP1;ratioP1;P1;durP2;ratioP2;P2;SDS_P1;SDS_P2;PMS_P1;PMS_P2;Temp;Humidity;BMP_temperature;BMP_pressure;BME280_temperature;BME280_humidity;BME280_pressure;Samples;Min_cycle;Max_cycle;Signal;HPM_P1;HPM_P2
2022/02/03 00:00:55;;;;;;;21.20;3.70;;;1.90;99.90;;;;;;5012150;28;20249;-95
2022/02/03 00:03:30;;;;;;;21.50;4.20;;;1.90;99.90;;;;;;5012188;28;20186;-95
2022/02/03 00:06:02;;;;;;;17.97;3.70;;;2.00;99.90;;;;;;5012169;28;20526;-95
2022/02/03 00:24:50;;;;;;;19.97;3.57;;;2.00;99.90;;;;;;4996116;28;20189;-94
2022/02/03 00:27:44;;;;;;;20.87;3.27;;;2.10;99.90;;;;;;5011694;28;20259;-93
2022/02/03 00:30:16;;;;;;;16.47;3.47;;;2.10;99.90;;;;;;5011998;28;20180;-94
2022/02/03 00:33:08;;;;;;;13.20;3.43;;;2.10;99.90;;;;;;5010672;28;20188;-94
2022/02/03 00:49:47;;;;;;;16.10;2.23;;;2.50;99.90;;;;;;4996504;28;20171;-93
2022/02/03 00:52:13;;;;;;;14.67;2.83;;;2.60;99.90;;;;;;5011509;28;20270;-94
2022/02/03 00:54:39;;;;;;;12.13;2.70;;;2.70;99.90;;;;;;5011248;28;20230;-94
2022/02/03 00:57:07;;;;;;;20.63;3.20;;;2.70;99.90;;;;;;5011355;28;20172;-93
2022/02/03 00:59:50;;;;;;;18.57;3.23;;;2.70;99.90;;;;;;5011470;28;20190;-94
2022/02/03 01:02:17;;;;;;;16.17;2.90;;;2.70;99.90;;;;;;5011189;28;20172;-95
2022/02/03 01:04:43;;;;;;;16.70;3.03;;;2.70;99.90;;;;;;5011503;28;20187;-94
2022/02/03 01:07:19;;;;;;;12.63;2.83;;;2.60;99.90;;;;;;5011009;28;20172;-93
2022/02/03 01:10:03;;;;;;;21.40;3.30;;;2.70;99.90;;;;;;5011395;28;20179;-95
2022/02/03 01:12:46;;;;;;;17.63;2.97;;;2.70;99.90;;;;;;5011159;28;20179;-93
2022/02/03 01:15:23;;;;;;;12.87;2.53;;;2.70;99.90;;;;;;5011671;28;20219;-94
2022/02/03 01:45:36;;;;;;;13.10;3.03;;;2.70;99.90;;;;;;5018902;28;20159;-94
2022/02/03 01:53:34;;;;;;;10.57;2.43;;;2.80;99.90;;;;;;5019089;28;20202;-94
2022/02/03 01:56:22;;;;;;;14.80;2.40;;;2.80;99.90;;;;;;5017664;28;20191;-93
2022/02/03 01:58:48;;;;;;;20.20;2.87;;;2.80;99.90;;;;;;5018302;28;20187;-93
2022/02/03 02:01:25;;;;;;;19.10;2.93;;;2.80;99.90;;;;;;5017851;28;20183;-94
2022/02/03 02:03:54;;;;;;;23.83;3.63;;;2.80;99.90;;;;;;5017526;28;20514;-94
2022/02/03 02:06:40;;;;;;;12.73;2.10;;;2.80;99.90;;;;;;5017571;28;20610;-94
2022/02/03 02:09:12;;;;;;;13.73;2.50;;;2.90;99.90;;;;;;5017277;28;20214;-93
2022/02/03 02:12:22;;;;;;;17.70;3.10;;;2.90;99.90;;;;;;5017553;28;20174;-94
2022/02/03 02:43:00;;;;;;;8.47;2.60;;;3.00;99.90;;;;;;4998796;28;20171;-95
2022/02/03 02:46:06;;;;;;;16.97;2.90;;;3.00;99.90;;;;;;4998376;28;20165;-94
2022/02/03 02:48:47;;;;;;;13.77;2.73;;;3.10;99.90;;;;;;5006719;28;20183;-94
2022/02/03 02:51:21;;;;;;;11.83;2.70;;;3.10;99.90;;;;;;5018092;28;20169;-95
2022/02/03 02:56:49;;;;;;;15.27;3.10;;;3.10;99.90;;;;;;5018156;28;20241;-94
2022/02/03 03:32:43;;;;;;;15.43;3.00;;;3.60;99.90;;;;;;5036854;28;20162;-91
2022/02/03 03:35:33;;;;;;;23.67;3.43;;;3.60;99.90;;;;;;5035434;28;20221;-90
2022/02/03 03:38:00;;;;;;;12.90;2.73;;;3.60;99.90;;;;;;5036718;28;20163;-91
2022/02/03 03:40:30;;;;;;;11.53;3.37;;;3.60;99.90;;;;;;5034777;28;20603;-91
2022/02/03 03:43:01;;;;;;;13.67;3.40;;;3.60;99.90;;;;;;5035238;28;20575;-92
2022/02/03 03:45:30;;;;;;;20.17;3.47;;;3.60;99.90;;;;;;5035219;28;20174;-91
2022/02/03 03:48:01;;;;;;;15.63;3.43;;;3.70;99.90;;;;;;5035147;28;20182;-91
2022/02/03 03:50:29;;;;;;;12.27;3.03;;;3.60;99.90;;;;;;5035301;28;20169;-91
2022/02/03 03:53:03;;;;;;;21.90;3.40;;;3.70;99.90;;;;;;5035148;28;20190;-90
2022/02/03 03:58:30;;;;;;;14.60;3.27;;;3.60;99.90;;;;;;5035643;28;20163;-91
2022/02/03 04:42:23;;;;;;;24.63;6.30;;;3.70;99.90;;;;;;5035782;28;20627;-91
2022/02/03 05:06:11;;;;;;;37.77;9.67;;;4.00;99.90;;;;;;5034785;28;20193;-91
2022/02/03 05:09:34;;;;;;;29.13;9.07;;;4.00;99.90;;;;;;5014279;28;20258;-91
2022/02/03 06:16:42;;;;;;;29.90;10.37;;;4.30;99.90;;;;;;5042968;28;20171;-89
2022/02/03 06:21:51;;;;;;;27.73;9.87;;;4.40;99.90;;;;;;5036818;28;20197;-90
2022/02/03 06:24:47;;;;;;;31.50;10.60;;;4.40;99.90;;;;;;5033429;28;20245;-91
2022/02/03 06:27:26;;;;;;;24.60;9.90;;;4.40;99.90;;;;;;5032824;28;20167;-91
2022/02/03 06:29:55;;;;;;;28.67;9.27;;;4.40;99.90;;;;;;5035400;28;20261;-90
2022/02/03 06:32:22;;;;;;;22.00;8.90;;;4.50;99.90;;;;;;5046691;28;20179;-90
2022/02/03 06:34:48;;;;;;;32.07;9.27;;;4.50;99.90;;;;;;5043810;28;20220;-91
2022/02/03 06:37:14;;;;;;;25.07;9.23;;;4.50;99.90;;;;;;5036350;28;20174;-90
2022/02/03 06:39:40;;;;;;;29.03;9.97;;;4.50;99.90;;;;;;5036218;28;20181;-91
2022/02/03 06:42:07;;;;;;;26.77;10.13;;;4.50;99.90;;;;;;5035568;28;20628;-90
2022/02/03 06:44:41;;;;;;;25.57;9.80;;;4.50;99.90;;;;;;5021616;28;20190;-90
2022/02/03 06:55:15;;;;;;;23.37;10.20;;;4.60;99.90;;;;;;5012694;28;20222;-91
2022/02/03 06:57:48;;;;;;;20.03;9.60;;;4.60;99.90;;;;;;5035880;28;20183;-90
2022/02/03 07:00:21;;;;;;;31.63;10.33;;;4.60;99.90;;;;;;5035997;28;20175;-90
2022/02/03 07:02:51;;;;;;;25.63;10.93;;;4.60;99.90;;;;;;5037549;28;20182;-90
2022/02/03 07:05:16;;;;;;;25.33;11.43;;;4.60;99.90;;;;;;5036291;28;20225;-90
2022/02/03 07:07:42;;;;;;;25.33;10.40;;;4.60;99.90;;;;;;5036006;28;20186;-90
2022/02/03 07:10:09;;;;;;;29.37;11.60;;;4.70;99.90;;;;;;5036502;28;20258;-90
2022/02/03 07:12:37;;;;;;;34.30;13.00;;;4.70;99.90;;;;;;5035906;28;20198;-90
2022/02/03 07:15:04;;;;;;;33.07;12.03;;;4.70;99.90;;;;;;5035787;28;20648;-90
2022/02/03 07:17:31;;;;;;;25.07;11.23;;;4.70;99.90;;;;;;5036139;28;20597;-90
2022/02/03 07:20:02;;;;;;;28.10;12.10;;;4.70;99.90;;;;;;5035782;28;20639;-89
2022/02/03 07:22:28;;;;;;;22.80;11.17;;;4.70;99.90;;;;;;5035658;28;20490;-90
2022/02/03 07:24:54;;;;;;;21.30;10.50;;;4.80;99.90;;;;;;5035516;28;20182;-89
2022/02/03 07:27:21;;;;;;;26.17;10.57;;;4.80;99.90;;;;;;5035847;28;20206;-90
2022/02/03 07:29:48;;;;;;;36.27;11.73;;;4.80;99.90;;;;;;5035599;28;20272;-90
2022/02/03 07:32:14;;;;;;;24.37;10.93;;;4.90;99.90;;;;;;5035730;28;20186;-89
2022/02/03 07:34:40;;;;;;;25.93;11.30;;;4.90;99.90;;;;;;5035619;28;20210;-91
2022/02/03 07:37:06;;;;;;;21.10;11.03;;;4.90;99.90;;;;;;5035527;28;20615;-91
2022/02/03 07:39:33;;;;;;;26.53;10.97;;;4.90;99.90;;;;;;5035562;28;20182;-91
2022/02/03 07:41:59;;;;;;;23.43;11.60;;;4.90;99.90;;;;;;5034798;28;20178;-92
2022/02/03 07:44:25;;;;;;;25.77;11.53;;;4.90;99.90;;;;;;5035668;28;20187;-89
2022/02/03 07:46:51;;;;;;;26.47;11.27;;;4.90;99.90;;;;;;5035441;28;20262;-92
2022/02/03 07:49:17;;;;;;;26.17;11.43;;;4.90;99.90;;;;;;5035784;28;20683;-91
2022/02/03 07:51:43;;;;;;;20.57;11.60;;;4.90;99.90;;;;;;5035443;28;20175;-92
2022/02/03 07:54:10;;;;;;;27.97;12.00;;;5.00;99.90;;;;;;5035223;28;20202;-92
2022/02/03 07:56:39;;;;;;;22.23;11.30;;;5.10;99.90;;;;;;5035157;28;20190;-90
2022/02/03 07:59:05;;;;;;;22.70;11.13;;;5.10;99.90;;;;;;5035271;28;20598;-91
2022/02/03 08:01:31;;;;;;;23.10;11.17;;;5.10;99.90;;;;;;5034947;28;20252;-90
2022/02/03 08:04:01;;;;;;;27.23;11.67;;;5.20;99.90;;;;;;5034844;28;20209;-91
2022/02/03 08:06:31;;;;;;;19.80;11.43;;;5.10;99.90;;;;;;5034894;28;20175;-92
2022/02/03 08:09:05;;;;;;;22.60;11.23;;;5.10;99.90;;;;;;5039625;28;20265;-93
2022/02/03 08:11:36;;;;;;;23.67;12.20;;;5.20;99.90;;;;;;5034279;28;20185;-92
2022/02/03 08:14:11;;;;;;;22.47;11.60;;;5.20;99.90;;;;;;5034634;28;20661;-91
2022/02/03 08:16:50;;;;;;;23.70;13.00;;;5.20;99.90;;;;;;5034741;28;20184;-92
2022/02/03 08:19:25;;;;;;;22.03;12.20;;;5.20;99.90;;;;;;5034929;28;20193;-92
2022/02/03 08:22:00;;;;;;;22.33;11.93;;;5.30;99.90;;;;;;5034697;28;20205;-91
2022/02/03 08:24:44;;;;;;;21.57;12.20;;;5.30;99.90;;;;;;5034642;28;20628;-91
2022/02/03 08:32:18;;;;;;;23.53;12.33;;;5.40;99.90;;;;;;5035268;28;20266;-93
2022/02/03 08:37:21;;;;;;;26.87;13.57;;;5.40;99.90;;;;;;5035524;28;20177;-92
2022/02/03 08:39:56;;;;;;;21.47;11.70;;;5.40;99.90;;;;;;5034026;28;20218;-91
2022/02/03 08:42:22;;;;;;;23.73;13.13;;;5.40;99.90;;;;;;5033794;28;20209;-91
2022/02/03 08:44:49;;;;;;;22.97;11.90;;;5.40;99.90;;;;;;5020243;28;20183;-92
2022/02/03 08:47:15;;;;;;;22.97;12.23;;;5.50;99.90;;;;;;5014725;28;20181;-91
2022/02/03 08:49:46;;;;;;;25.10;12.47;;;5.50;99.90;;;;;;5034052;28;20229;-92
2022/02/03 08:52:22;;;;;;;21.63;12.47;;;5.50;99.90;;;;;;5033128;28;20194;-90
2022/02/03 09:36:36;;;;;;;23.53;13.47;;;6.00;99.90;;;;;;5015178;28;20210;-91
2022/02/03 09:52:33;;;;;;;22.40;11.97;;;6.10;99.90;;;;;;5015245;28;20180;-93
2022/02/03 10:03:16;;;;;;;19.83;11.60;;;6.30;99.90;;;;;;5030876;28;20186;-91
2022/02/03 10:06:09;;;;;;;21.80;12.90;;;6.30;99.90;;;;;;5036721;28;20609;-92
2022/02/03 10:08:35;;;;;;;23.70;12.57;;;6.30;99.90;;;;;;5037327;28;20632;-91
2022/02/03 10:11:11;;;;;;;22.97;13.10;;;6.30;99.90;;;;;;5036967;28;20237;-91
2022/02/03 10:13:43;;;;;;;20.27;11.17;;;6.30;99.90;;;;;;5038166;28;20170;-92
2022/02/03 10:16:09;;;;;;;21.47;12.70;;;6.30;99.90;;;;;;5036727;28;20193;-92
2022/02/03 10:18:36;;;;;;;21.23;13.10;;;6.30;99.90;;;;;;5036767;28;20194;-92
2022/02/03 10:21:03;;;;;;;20.73;12.03;;;6.40;99.90;;;;;;5037146;28;20514;-91
2022/02/03 10:23:31;;;;;;;18.33;12.20;;;6.40;99.90;;;;;;5036882;28;20175;-92
2022/02/03 10:26:07;;;;;;;19.27;12.50;;;6.40;99.90;;;;;;5036958;28;20183;-92
2022/02/03 10:28:35;;;;;;;18.17;12.47;;;6.40;99.90;;;;;;5036420;28;20197;-91
2022/02/03 10:31:04;;;;;;;22.47;13.10;;;6.50;99.90;;;;;;5036531;28;20181;-92
2022/02/03 10:33:38;;;;;;;22.03;12.57;;;6.50;99.90;;;;;;5036639;28;20189;-92
2022/02/03 10:36:20;;;;;;;21.73;12.13;;;6.50;99.90;;;;;;5036591;28;20236;-91
2022/02/03 10:45:00;;;;;;;20.67;12.20;;;6.60;99.90;;;;;;5037315;28;20309;-91
2022/02/03 10:55:30;;;;;;;22.93;14.10;;;6.60;99.90;;;;;;5037170;28;20205;-91
2022/02/03 10:58:11;;;;;;;22.30;13.77;;;6.60;99.90;;;;;;5017248;28;20627;-91
2022/02/03 11:09:04;;;;;;;21.53;13.43;;;6.60;99.90;;;;;;5036962;28;20186;-91
2022/02/03 11:11:37;;;;;;;19.10;13.33;;;6.60;99.90;;;;;;5037210;28;20194;-91
2022/02/03 11:14:04;;;;;;;20.03;13.37;;;6.60;99.90;;;;;;5035718;28;20205;-91
2022/02/03 11:16:36;;;;;;;23.03;14.17;;;6.70;99.90;;;;;;5034596;28;20225;-91
2022/02/03 11:19:04;;;;;;;20.17;13.27;;;6.70;99.90;;;;;;5036094;28;20266;-92
2022/02/03 11:21:35;;;;;;;22.60;14.40;;;6.70;99.90;;;;;;5035722;28;20526;-91
2022/02/03 11:24:12;;;;;;;21.23;13.40;;;6.80;99.90;;;;;;5035763;28;20185;-91
2022/02/03 11:32:19;;;;;;;22.87;13.43;;;6.80;99.90;;;;;;5037017;28;20218;-93
2022/02/03 11:38:00;;;;;;;24.77;12.73;;;6.80;99.90;;;;;;5035697;28;20173;-91
2022/02/03 11:54:32;;;;;;;21.40;13.40;;;6.80;99.90;;;;;;5036335;28;20228;-92
2022/02/03 11:57:15;;;;;;;21.33;13.47;;;6.80;99.90;;;;;;5035148;28;20317;-92
2022/02/03 12:14:19;;;;;;;21.23;13.00;;;6.90;99.90;;;;;;5036465;28;20155;-93
2022/02/03 12:16:58;;;;;;;21.53;13.07;;;6.80;99.90;;;;;;5035562;28;20720;-93
2022/02/03 12:22:29;;;;;;;22.80;13.87;;;6.80;99.90;;;;;;5036455;28;20175;-93
2022/02/03 12:25:29;;;;;;;22.43;13.67;;;6.90;99.90;;;;;;5034285;28;20183;-92
2022/02/03 12:30:52;;;;;;;20.70;13.17;;;6.90;99.90;;;;;;5035747;28;20200;-91
2022/02/03 12:38:49;;;;;;;20.30;13.53;;;7.00;99.90;;;;;;5035696;28;20229;-91
2022/02/03 12:41:21;;;;;;;23.50;13.23;;;7.00;99.90;;;;;;5034427;28;20256;-91
2022/02/03 12:43:56;;;;;;;22.20;13.20;;;7.00;99.90;;;;;;5034611;28;20193;-92
2022/02/03 12:46:22;;;;;;;21.47;13.37;;;7.00;99.90;;;;;;5034352;28;20206;-92
2022/02/03 12:48:55;;;;;;;23.03;13.30;;;7.00;99.90;;;;;;5034446;28;20178;-92
2022/02/03 12:51:22;;;;;;;18.53;12.40;;;7.00;99.90;;;;;;5034361;28;20270;-92
2022/02/03 12:53:48;;;;;;;21.67;12.57;;;7.00;99.90;;;;;;5033894;28;20182;-92
2022/02/03 12:56:18;;;;;;;17.60;11.90;;;7.00;99.90;;;;;;5034330;28;20214;-91
2022/02/03 12:58:48;;;;;;;19.83;12.77;;;7.00;99.90;;;;;;5034121;28;20210;-92
2022/02/03 13:01:21;;;;;;;19.60;12.67;;;7.00;99.90;;;;;;5035299;28;20209;-92
2022/02/03 13:03:50;;;;;;;19.47;11.73;;;7.00;99.90;;;;;;5033740;28;20225;-92
2022/02/03 13:06:20;;;;;;;19.77;11.40;;;7.00;99.90;;;;;;5033825;28;20183;-91
2022/02/03 13:08:54;;;;;;;19.70;11.90;;;7.00;99.90;;;;;;5033591;28;20193;-91
2022/02/03 13:14:24;;;;;;;22.30;12.70;;;7.10;99.90;;;;;;5035143;28;20175;-91
2022/02/03 13:17:11;;;;;;;20.50;12.33;;;7.10;99.90;;;;;;5033828;28;20202;-92
2022/02/03 13:25:01;;;;;;;18.53;10.97;;;7.10;99.90;;;;;;5035574;28;20216;-92
2022/02/03 13:27:41;;;;;;;18.97;11.33;;;7.10;99.90;;;;;;5034843;28;20273;-92
2022/02/03 13:30:13;;;;;;;18.60;11.20;;;7.00;99.90;;;;;;5033904;28;20517;-91
2022/02/03 13:32:45;;;;;;;17.67;11.03;;;7.00;99.90;;;;;;5034025;28;20574;-91
2022/02/03 13:38:05;;;;;;;19.33;12.03;;;7.00;99.90;;;;;;5035304;28;20194;-91
2022/02/03 13:40:32;;;;;;;19.97;11.60;;;7.00;99.90;;;;;;5037937;28;20174;-92
2022/02/03 13:43:08;;;;;;;17.33;11.33;;;7.00;99.90;;;;;;5037835;28;20265;-92
2022/02/03 13:45:40;;;;;;;19.43;11.27;;;7.00;99.90;;;;;;5038921;28;20205;-92
2022/02/03 13:48:19;;;;;;;16.00;11.27;;;7.00;99.90;;;;;;5037644;28;20698;-92
2022/02/03 13:50:55;;;;;;;17.37;11.07;;;7.00;99.90;;;;;;5037255;28;20269;-92
2022/02/03 13:53:29;;;;;;;16.43;11.20;;;7.00;99.90;;;;;;5037452;28;20613;-92
2022/02/03 14:18:16;;;;;;;21.60;11.77;;;7.00;99.90;;;;;;5039207;28;20186;-93
2022/02/03 14:28:23;;;;;;;17.33;11.47;;;7.00;99.90;;;;;;5037947;28;20198;-93
2022/02/03 14:30:54;;;;;;;22.27;12.37;;;7.00;99.90;;;;;;5035551;28;20177;-93
2022/02/03 14:33:28;;;;;;;19.77;12.90;;;7.00;99.90;;;;;;5037339;28;20165;-93
2022/02/03 14:35:58;;;;;;;19.37;12.33;;;7.00;99.90;;;;;;5036619;28;20554;-93
2022/02/03 14:38:30;;;;;;;19.63;12.23;;;7.00;99.90;;;;;;5037100;28;20175;-93
2022/02/03 14:43:29;;;;;;;21.10;12.17;;;6.90;99.90;;;;;;5038004;28;20174;-93
2022/02/03 14:45:57;;;;;;;22.90;12.33;;;6.90;99.90;;;;;;5037002;28;20260;-93
2022/02/03 14:48:23;;;;;;;28.07;13.97;;;6.90;99.90;;;;;;5036743;28;20182;-93
2022/02/03 14:50:50;;;;;;;23.27;13.30;;;7.00;99.90;;;;;;5039051;28;20253;-91
2022/02/03 14:53:19;;;;;;;26.27;13.63;;;6.90;99.90;;;;;;5016499;28;20187;-92
2022/02/03 14:58:30;;;;;;;22.87;13.37;;;6.90;99.90;;;;;;5020495;28;20191;-93
2022/02/03 15:00:57;;;;;;;27.40;14.27;;;6.90;99.90;;;;;;5016454;28;20194;-93
2022/02/03 15:03:24;;;;;;;22.97;13.60;;;6.90;99.90;;;;;;5018086;28;20179;-95
2022/02/03 15:05:51;;;;;;;26.07;13.23;;;6.90;99.90;;;;;;5034287;28;20589;-95
2022/02/03 15:08:20;;;;;;;23.23;13.67;;;6.80;99.90;;;;;;5034680;28;20202;-93
2022/02/03 15:10:53;;;;;;;27.00;14.50;;;6.90;99.90;;;;;;5033063;28;20222;-92
2022/02/03 15:13:41;;;;;;;27.73;15.10;;;6.80;99.90;;;;;;5032216;28;20186;-93
2022/02/03 15:16:07;;;;;;;26.97;14.90;;;6.80;99.90;;;;;;5036335;28;20305;-92
2022/02/03 15:18:33;;;;;;;30.23;14.47;;;6.80;99.90;;;;;;5035705;28;20170;-91
2022/02/03 15:20:59;;;;;;;31.27;15.23;;;6.80;99.90;;;;;;5035130;28;20186;-92
2022/02/03 15:23:25;;;;;;;23.03;13.30;;;6.80;99.90;;;;;;5035748;28;20187;-91
2022/02/03 15:25:51;;;;;;;26.20;13.80;;;6.80;99.90;;;;;;5035267;28;20499;-91
2022/02/03 15:28:19;;;;;;;24.33;14.07;;;6.80;99.90;;;;;;5035402;28;20313;-91
2022/02/03 15:30:45;;;;;;;30.10;15.23;;;6.80;99.90;;;;;;5034994;28;20179;-91
2022/02/03 15:33:11;;;;;;;28.90;13.73;;;6.80;99.90;;;;;;5035327;28;20186;-91
2022/02/03 15:35:42;;;;;;;27.30;14.27;;;6.80;99.90;;;;;;5014959;28;20218;-91
2022/02/03 15:38:13;;;;;;;27.63;13.77;;;6.80;99.90;;;;;;5015225;28;20167;-91
2022/02/03 15:40:39;;;;;;;31.37;14.93;;;6.80;99.90;;;;;;5015314;28;20175;-91
2022/02/03 15:43:09;;;;;;;25.00;13.93;;;6.70;99.90;;;;;;5015500;28;20168;-91
2022/02/03 15:45:39;;;;;;;27.77;13.93;;;6.70;99.90;;;;;;5015151;28;20611;-92
2022/02/03 15:48:26;;;;;;;24.67;14.60;;;6.70;99.90;;;;;;5015971;28;20172;-92
2022/02/03 16:19:18;;;;;;;13.43;8.90;;;6.80;99.90;;;;;;5035831;28;20179;-91
2022/02/03 16:21:57;;;;;;;12.97;9.83;;;6.80;99.90;;;;;;5034382;28;20262;-91
2022/02/03 16:51:16;;;;;;;17.50;13.50;;;6.50;99.90;;;;;;5034629;28;20197;-89
2022/02/03 16:53:43;;;;;;;18.77;14.03;;;6.50;99.90;;;;;;5034027;28;20178;-90
2022/02/03 16:56:11;;;;;;;21.77;13.93;;;6.50;99.90;;;;;;5033637;28;20317;-89
2022/02/03 16:58:38;;;;;;;21.43;14.53;;;6.50;99.90;;;;;;5033970;28;20182;-90
2022/02/03 17:01:04;;;;;;;18.70;14.10;;;6.50;99.90;;;;;;5033947;28;20699;-89
2022/02/03 17:03:30;;;;;;;20.13;14.27;;;6.50;99.90;;;;;;5033994;28;20195;-89
2022/02/03 17:05:56;;;;;;;18.77;14.93;;;6.50;99.90;;;;;;5033882;28;20508;-90
2022/02/03 17:08:22;;;;;;;20.07;15.33;;;6.50;99.90;;;;;;5033786;28;20597;-90
2022/02/03 17:10:48;;;;;;;21.70;14.80;;;6.50;99.90;;;;;;5033172;28;20218;-90
2022/02/03 17:13:14;;;;;;;19.30;14.43;;;6.50;99.90;;;;;;5032975;28;20190;-89
2022/02/03 17:15:39;;;;;;;22.43;17.03;;;6.50;99.90;;;;;;5033511;28;20218;-89
2022/02/03 17:18:05;;;;;;;22.93;16.80;;;6.40;99.90;;;;;;5033484;28;20182;-89
2022/02/03 17:20:34;;;;;;;24.93;16.67;;;6.50;99.90;;;;;;5033749;28;20190;-89
2022/02/03 17:23:03;;;;;;;22.67;16.07;;;6.50;99.90;;;;;;5033448;28;20269;-89
2022/02/03 17:30:48;;;;;;;19.90;15.67;;;6.40;99.90;;;;;;5033737;28;20175;-90
2022/02/03 17:53:03;;;;;;;22.17;15.37;;;6.30;99.90;;;;;;5034794;28;20170;-91
2022/02/03 18:30:00;;;;;;;22.63;17.07;;;6.20;99.90;;;;;;5057928;28;20585;-92
2022/02/03 18:35:45;;;;;;;22.63;16.03;;;6.20;99.90;;;;;;5057667;28;20304;-90
2022/02/03 18:47:40;;;;;;;23.37;16.73;;;6.10;99.90;;;;;;5058013;28;20162;-90
2022/02/03 18:54:44;;;;;;;25.07;17.47;;;6.10;99.90;;;;;;5036337;28;20206;-90
2022/02/03 19:12:00;;;;;;;21.70;15.63;;;6.00;99.90;;;;;;5039698;28;20229;-90
2022/02/03 19:23:00;;;;;;;20.40;15.00;;;6.00;99.90;;;;;;5038306;28;20308;-90
2022/02/03 19:27:22;;;;;;;19.23;14.50;;;6.00;99.90;;;;;;5017321;28;20628;-91
2022/02/03 20:05:38;;;;;;;17.80;12.80;;;5.80;99.90;;;;;;5056586;28;20261;-90
2022/02/03 20:08:20;;;;;;;18.23;12.87;;;5.80;99.90;;;;;;5043015;28;20277;-91
2022/02/03 20:10:49;;;;;;;18.60;13.57;;;5.70;99.90;;;;;;5034873;28;20237;-90
2022/02/03 20:13:15;;;;;;;19.53;13.33;;;5.70;99.90;;;;;;5037071;28;20213;-91
2022/02/03 20:15:42;;;;;;;21.47;12.87;;;5.70;99.90;;;;;;5037523;28;20206;-90
2022/02/03 20:18:11;;;;;;;18.70;12.70;;;5.70;99.90;;;;;;5033688;28;20178;-91
2022/02/03 20:20:41;;;;;;;18.60;12.93;;;5.70;99.90;;;;;;5034606;28;20277;-90
2022/02/03 20:23:10;;;;;;;19.50;13.63;;;5.70;99.90;;;;;;5034441;28;20170;-91
2022/02/03 20:25:37;;;;;;;17.83;13.10;;;5.60;99.90;;;;;;5034613;28;20167;-90
2022/02/03 20:28:07;;;;;;;17.67;12.57;;;5.60;99.90;;;;;;5036970;28;20273;-91
2022/02/03 20:30:33;;;;;;;16.20;12.27;;;5.70;99.90;;;;;;5034740;28;20186;-90
2022/02/03 20:32:59;;;;;;;15.07;11.43;;;5.70;99.90;;;;;;5034521;28;20194;-90
2022/02/03 20:35:25;;;;;;;14.93;11.40;;;5.70;99.90;;;;;;5040442;28;20213;-91
2022/02/03 20:37:51;;;;;;;15.97;11.97;;;5.70;99.90;;;;;;5036192;28;20268;-90
2022/02/03 20:40:16;;;;;;;17.50;12.20;;;5.70;99.90;;;;;;5034123;28;20198;-90
2022/02/03 20:42:42;;;;;;;17.87;12.63;;;5.60;99.90;;;;;;5033454;28;20187;-91
2022/02/03 20:45:09;;;;;;;16.57;12.53;;;5.70;99.90;;;;;;5034319;28;20202;-91
2022/02/03 20:47:34;;;;;;;16.40;12.17;;;5.70;99.90;;;;;;5033506;28;20190;-91
2022/02/03 20:50:02;;;;;;;18.07;13.00;;;5.60;99.90;;;;;;5026506;28;20625;-91
2022/02/03 20:52:27;;;;;;;20.63;12.43;;;5.60;99.90;;;;;;5032381;28;20178;-91
2022/02/03 20:54:53;;;;;;;18.50;12.37;;;5.70;99.90;;;;;;5032264;28;20222;-91
2022/02/03 20:57:19;;;;;;;18.80;12.93;;;5.70;99.90;;;;;;5033898;28;20187;-90
2022/02/03 21:00:12;;;;;;;15.17;12.27;;;5.60;99.90;;;;;;5034212;28;20213;-90
2022/02/03 21:02:48;;;;;;;20.23;13.33;;;5.70;99.90;;;;;;5032438;28;20186;-90
2022/02/03 21:05:16;;;;;;;20.87;14.03;;;5.70;99.90;;;;;;5032067;28;20189;-90
2022/02/03 21:07:47;;;;;;;16.53;12.10;;;5.70;99.90;;;;;;5032483;28;20182;-90
2022/02/03 21:10:18;;;;;;;22.37;13.83;;;5.70;99.90;;;;;;5030171;28;20240;-92
2022/02/03 21:12:45;;;;;;;18.27;12.50;;;5.70;99.90;;;;;;5029511;28;20257;-90
2022/02/03 21:15:14;;;;;;;16.27;12.50;;;5.70;99.90;;;;;;5031893;28;20213;-90
2022/02/03 21:17:41;;;;;;;18.37;12.67;;;5.70;99.90;;;;;;5029406;28;20178;-91
2022/02/03 21:20:14;;;;;;;18.90;13.63;;;5.70;99.90;;;;;;5032379;28;20419;-90
2022/02/03 21:22:40;;;;;;;18.93;13.87;;;5.70;99.90;;;;;;5032239;28;20693;-90
2022/02/03 21:25:23;;;;;;;18.07;14.40;;;5.70;99.90;;;;;;5032023;28;20190;-90
2022/02/03 21:27:56;;;;;;;19.73;13.87;;;5.70;99.90;;;;;;5029216;28;20204;-90
2022/02/03 21:30:27;;;;;;;20.77;14.53;;;5.70;99.90;;;;;;5033613;28;20641;-90
2022/02/03 21:32:56;;;;;;;19.13;14.93;;;5.70;99.90;;;;;;5030875;28;20182;-91
2022/02/03 21:35:23;;;;;;;17.43;14.63;;;5.70;99.90;;;;;;5031978;28;20221;-90
2022/02/03 21:37:51;;;;;;;20.63;15.43;;;5.70;99.90;;;;;;5031976;28;20198;-90
2022/02/03 21:40:21;;;;;;;22.00;15.03;;;5.70;99.90;;;;;;5032328;28;20182;-90
2022/02/03 21:42:49;;;;;;;22.77;15.40;;;5.70;99.90;;;;;;5031346;28;20186;-90
2022/02/03 21:45:18;;;;;;;18.67;14.93;;;5.70;99.90;;;;;;5031438;28;20186;-90
2022/02/03 21:47:48;;;;;;;19.50;15.40;;;5.70;99.90;;;;;;5032218;28;20186;-90
2022/02/03 21:50:15;;;;;;;19.30;15.27;;;5.70;99.90;;;;;;5028753;28;20186;-91
2022/02/03 21:52:47;;;;;;;19.63;16.10;;;5.70;99.90;;;;;;5031525;28;20186;-91
2022/02/03 21:55:14;;;;;;;21.00;15.33;;;5.70;99.90;;;;;;5031663;28;20211;-90
2022/02/03 21:57:43;;;;;;;20.90;15.33;;;5.70;99.90;;;;;;5031967;28;20193;-90
2022/02/03 22:00:11;;;;;;;22.10;15.70;;;5.70;99.90;;;;;;5034831;28;20269;-91
2022/02/03 22:02:38;;;;;;;21.00;15.90;;;5.70;99.90;;;;;;5035602;28;20182;-90
2022/02/03 22:05:06;;;;;;;20.17;16.27;;;5.70;99.90;;;;;;5035109;28;20190;-90
2022/02/03 22:07:36;;;;;;;19.60;15.23;;;5.70;99.90;;;;;;5036012;28;20182;-91
2022/02/03 22:10:03;;;;;;;22.20;15.83;;;5.70;99.90;;;;;;5035727;28;20234;-90
2022/02/03 22:12:28;;;;;;;20.50;16.13;;;5.70;99.90;;;;;;5034018;28;20277;-91
2022/02/03 22:14:54;;;;;;;20.63;15.90;;;5.70;99.90;;;;;;5034851;28;20301;-90
2022/02/03 22:17:20;;;;;;;21.67;15.43;;;5.70;99.90;;;;;;5036376;28;20701;-90
2022/02/03 22:19:51;;;;;;;22.87;16.00;;;5.80;99.90;;;;;;5035697;28;20220;-90
2022/02/03 22:44:03;;;;;;;23.60;17.40;;;5.70;99.90;;;;;;5037972;28;20177;-91
2022/02/03 22:49:06;;;;;;;22.87;17.37;;;5.70;99.90;;;;;;5037163;28;20663;-92
2022/02/03 22:51:37;;;;;;;23.10;17.57;;;5.70;99.90;;;;;;5036425;28;20209;-91
2022/02/03 22:54:06;;;;;;;24.13;17.93;;;5.70;99.90;;;;;;5036507;28;20190;-91
2022/02/03 22:56:32;;;;;;;25.17;18.23;;;5.70;99.90;;;;;;5036113;28;20523;-91
2022/02/03 23:01:23;;;;;;;23.60;18.00;;;5.70;99.90;;;;;;5037744;28;20257;-91
2022/02/03 23:03:49;;;;;;;23.47;18.00;;;5.60;99.90;;;;;;5036540;28;20178;-90
2022/02/03 23:06:15;;;;;;;27.40;19.00;;;5.60;99.90;;;;;;5036234;28;20197;-92
2022/02/03 23:11:49;;;;;;;26.83;18.73;;;5.70;99.90;;;;;;5036258;28;20288;-91
2022/02/03 23:14:25;;;;;;;23.77;17.00;;;5.70;99.90;;;;;;5036129;28;20266;-91
2022/02/03 23:27:57;;;;;;;25.67;19.20;;;5.70;99.90;;;;;;5422875;22;20234;-94
2022/02/03 23:30:01;;;;;;;25.07;19.37;;;5.70;99.90;;;;;;5058407;28;20189;-94
2022/02/03 23:32:34;;;;;;;27.97;20.27;;;5.70;99.90;;;;;;5055007;28;20649;-96
2022/02/03 23:51:45;;;;;;;26.20;20.37;;;5.70;99.90;;;;;;5059639;28;20224;-94
